createdAt,value
2017-12-27T00:00:38.024Z,986.21
2017-12-27T00:01:38.014Z,986.14
2017-12-27T00:03:31.426Z,986.18
2017-12-27T00:04:31.432Z,986.14
2017-12-27T00:06:24.375Z,986.08
2017-12-27T00:07:24.361Z,986.00
2017-12-27T00:09:17.279Z,985.94
2017-12-27T00:10:17.291Z,985.93
2017-12-27T00:12:10.234Z,985.86
2017-12-27T00:13:10.219Z,985.88
2017-12-27T00:15:03.150Z,985.88
2017-12-27T00:16:03.151Z,985.79
2017-12-27T00:17:56.090Z,985.77
2017-12-27T00:18:56.079Z,985.82
2017-12-27T00:20:48.994Z,985.75
2017-12-27T00:21:49.012Z,985.69
2017-12-27T00:23:41.947Z,985.67
2017-12-27T00:24:41.940Z,985.67
2017-12-27T00:26:34.888Z,985.66
2017-12-27T00:27:34.875Z,985.64
2017-12-27T00:29:27.795Z,985.51
2017-12-27T00:30:27.804Z,985.52
2017-12-27T00:32:20.737Z,985.44
2017-12-27T00:33:20.733Z,985.39
2017-12-27T00:35:13.655Z,985.34
2017-12-27T00:36:13.663Z,985.34
2017-12-27T00:38:06.600Z,985.25
2017-12-27T00:39:06.595Z,985.24
2017-12-27T00:40:59.511Z,985.13
2017-12-27T00:41:59.522Z,985.06
2017-12-27T00:43:52.463Z,985.07
2017-12-27T00:44:52.451Z,985.00
2017-12-27T00:46:45.377Z,984.92
2017-12-27T00:47:45.384Z,984.88
2017-12-27T00:49:38.321Z,984.86
2017-12-27T00:50:38.312Z,984.84
2017-12-27T00:52:31.230Z,984.77
2017-12-27T00:53:31.242Z,984.69
2017-12-27T00:55:24.182Z,984.65
2017-12-27T00:56:24.170Z,984.63
2017-12-27T00:58:17.098Z,984.54
2017-12-27T00:59:17.102Z,984.52
2017-12-27T01:01:10.037Z,984.52
2017-12-27T01:02:10.030Z,984.43
2017-12-27T01:04:02.974Z,984.44
2017-12-27T01:05:02.961Z,984.39
2017-12-27T01:06:55.880Z,984.37
2017-12-27T01:07:55.889Z,984.34
2017-12-27T01:09:48.828Z,984.29
2017-12-27T01:10:48.820Z,984.26
2017-12-27T01:12:41.736Z,984.19
2017-12-27T01:13:41.753Z,984.17
2017-12-27T01:15:34.686Z,984.18
2017-12-27T01:16:34.680Z,984.16
2017-12-27T01:18:27.597Z,984.17
2017-12-27T01:19:27.610Z,984.16
2017-12-27T01:21:20.549Z,984.17
2017-12-27T01:22:20.542Z,984.14
2017-12-27T01:24:13.461Z,984.02
2017-12-27T01:25:13.468Z,984.02
2017-12-27T01:27:06.415Z,984.05
2017-12-27T01:28:06.402Z,984.02
2017-12-27T01:29:59.321Z,983.92
2017-12-27T01:30:59.339Z,983.89
2017-12-27T01:32:52.268Z,983.76
2017-12-27T01:33:52.265Z,983.81
2017-12-27T01:35:45.178Z,983.74
2017-12-27T01:36:45.198Z,983.74
2017-12-27T01:38:38.131Z,983.68
2017-12-27T01:39:38.124Z,983.62
2017-12-27T01:41:31.041Z,983.56
2017-12-27T01:42:31.055Z,983.55
2017-12-27T01:44:23.983Z,983.43
2017-12-27T01:45:23.982Z,983.43
2017-12-27T01:47:16.907Z,983.39
2017-12-27T01:48:16.916Z,983.30
2017-12-27T01:50:09.852Z,983.26
2017-12-27T01:51:09.848Z,983.28
2017-12-27T01:53:02.796Z,983.28
2017-12-27T01:54:02.787Z,983.21
2017-12-27T01:55:55.689Z,983.19
2017-12-27T01:56:55.702Z,983.06
2017-12-27T01:58:48.644Z,983.07
2017-12-27T01:59:48.631Z,983.00
2017-12-27T02:01:41.551Z,982.99
2017-12-27T02:02:41.562Z,983.00
2017-12-27T02:04:34.499Z,983.02
2017-12-27T02:05:34.494Z,983.06
2017-12-27T02:07:27.416Z,983.02
2017-12-27T02:08:27.424Z,982.97
2017-12-27T02:10:20.361Z,982.95
2017-12-27T02:11:20.354Z,982.92
2017-12-27T02:13:13.274Z,982.85
2017-12-27T02:14:13.285Z,982.75
2017-12-27T02:16:06.225Z,982.75
2017-12-27T02:17:06.219Z,982.77
2017-12-27T02:18:59.133Z,982.64
2017-12-27T02:19:59.149Z,982.63
2017-12-27T02:21:52.082Z,982.53
2017-12-27T02:22:52.077Z,982.53
2017-12-27T02:24:45.001Z,982.40
2017-12-27T02:25:45.011Z,982.42
2017-12-27T02:27:37.950Z,982.32
2017-12-27T02:28:37.942Z,982.21
2017-12-27T02:30:30.858Z,982.15
2017-12-27T02:31:30.875Z,982.20
2017-12-27T02:33:23.814Z,982.16
2017-12-27T02:34:23.806Z,982.13
2017-12-27T02:36:16.719Z,982.11
2017-12-27T02:37:16.731Z,982.05
2017-12-27T02:39:09.677Z,981.99
2017-12-27T02:40:09.674Z,981.97
2017-12-27T02:42:02.614Z,981.93
2017-12-27T02:43:02.601Z,981.81
2017-12-27T02:44:55.516Z,981.78
2017-12-27T02:45:55.533Z,981.72
2017-12-27T02:47:48.487Z,981.67
2017-12-27T02:48:48.465Z,981.70
2017-12-27T02:50:41.389Z,981.73
2017-12-27T02:51:41.397Z,981.63
2017-12-27T02:53:34.338Z,981.52
2017-12-27T02:54:34.330Z,981.51
2017-12-27T02:56:27.249Z,981.42
2017-12-27T02:57:27.259Z,981.40
2017-12-27T02:59:20.203Z,981.38
2017-12-27T03:00:20.194Z,981.31
2017-12-27T03:02:13.108Z,981.25
2017-12-27T03:03:13.122Z,981.24
2017-12-27T03:05:06.062Z,981.15
2017-12-27T03:06:06.053Z,981.18
2017-12-27T03:07:58.977Z,981.12
2017-12-27T03:08:58.985Z,981.09
2017-12-27T03:10:51.922Z,981.11
2017-12-27T03:11:51.915Z,981.01
2017-12-27T03:13:44.831Z,980.97
2017-12-27T03:14:44.845Z,980.96
2017-12-27T03:16:37.784Z,980.84
2017-12-27T03:17:37.774Z,980.91
2017-12-27T03:19:30.690Z,980.84
2017-12-27T03:20:30.706Z,980.87
2017-12-27T03:22:23.642Z,980.72
2017-12-27T03:23:23.634Z,980.74
2017-12-27T03:25:16.548Z,980.68
2017-12-27T03:26:16.562Z,980.62
2017-12-27T03:28:09.500Z,980.54
2017-12-27T03:29:09.496Z,980.60
2017-12-27T03:31:02.409Z,980.58
2017-12-27T03:32:02.422Z,980.56
2017-12-27T03:33:55.360Z,980.48
2017-12-27T03:34:55.351Z,980.50
2017-12-27T03:36:48.272Z,980.46
2017-12-27T03:37:48.283Z,980.33
2017-12-27T03:39:41.220Z,980.38
2017-12-27T03:40:41.211Z,980.33
2017-12-27T03:42:34.162Z,980.32
2017-12-27T03:43:34.142Z,980.23
2017-12-27T03:45:27.066Z,980.26
2017-12-27T03:46:27.073Z,980.18
2017-12-27T03:48:20.010Z,980.17
2017-12-27T03:49:20.002Z,980.13
2017-12-27T03:51:12.919Z,980.10
2017-12-27T03:52:12.932Z,980.04
2017-12-27T03:54:05.867Z,980.07
2017-12-27T03:55:05.860Z,980.00
2017-12-27T03:56:58.781Z,980.02
2017-12-27T03:57:58.792Z,980.02
2017-12-27T03:59:51.730Z,979.96
2017-12-27T04:00:51.722Z,979.93
2017-12-27T04:02:44.643Z,979.94
2017-12-27T04:03:44.655Z,979.94
2017-12-27T04:05:37.594Z,979.82
2017-12-27T04:06:37.583Z,979.82
2017-12-27T04:08:30.501Z,979.79
2017-12-27T04:09:30.512Z,979.74
2017-12-27T04:11:23.450Z,979.73
2017-12-27T04:12:23.445Z,979.67
2017-12-27T04:14:16.358Z,979.66
2017-12-27T04:15:16.374Z,979.61
2017-12-27T04:17:09.312Z,979.54
2017-12-27T04:18:09.311Z,979.57
2017-12-27T04:20:02.225Z,979.52
2017-12-27T04:21:02.235Z,979.51
2017-12-27T04:22:55.171Z,979.41
2017-12-27T04:23:55.165Z,979.41
2017-12-27T04:25:48.079Z,979.36
2017-12-27T04:26:48.091Z,979.39
2017-12-27T04:28:41.028Z,979.37
2017-12-27T04:29:41.020Z,979.35
2017-12-27T04:31:33.965Z,979.30
2017-12-27T04:32:33.953Z,979.31
2017-12-27T04:34:26.872Z,979.18
2017-12-27T04:35:26.882Z,979.13
2017-12-27T04:37:19.836Z,979.19
2017-12-27T04:38:19.812Z,979.18
2017-12-27T04:40:12.734Z,979.19
2017-12-27T04:41:12.744Z,979.11
2017-12-27T04:43:05.684Z,979.10
2017-12-27T04:44:05.678Z,979.12
2017-12-27T04:45:58.629Z,979.10
2017-12-27T04:46:58.641Z,979.09
2017-12-27T04:48:51.579Z,979.11
2017-12-27T04:49:51.577Z,979.01
2017-12-27T04:51:44.491Z,979.03
2017-12-27T04:52:44.504Z,979.00
2017-12-27T04:54:37.441Z,978.96
2017-12-27T04:55:37.429Z,978.92
2017-12-27T04:57:30.349Z,978.88
2017-12-27T04:58:30.363Z,978.87
2017-12-27T05:00:23.301Z,978.82
2017-12-27T05:01:23.294Z,978.79
2017-12-27T05:03:16.213Z,978.78
2017-12-27T05:04:16.225Z,978.70
2017-12-27T05:06:09.167Z,978.69
2017-12-27T05:07:09.150Z,978.71
2017-12-27T05:09:02.071Z,978.66
2017-12-27T05:10:02.087Z,978.61
2017-12-27T05:11:55.026Z,978.58
2017-12-27T05:12:55.014Z,978.64
2017-12-27T05:14:47.966Z,978.51
2017-12-27T05:15:47.941Z,978.48
2017-12-27T05:17:40.865Z,978.51
2017-12-27T05:18:40.875Z,978.51
2017-12-27T05:20:33.811Z,978.45
2017-12-27T05:21:33.804Z,978.44
2017-12-27T05:23:26.723Z,978.43
2017-12-27T05:24:26.742Z,978.48
2017-12-27T05:26:19.674Z,978.41
2017-12-27T05:27:19.667Z,978.43
2017-12-27T05:29:12.586Z,978.44
2017-12-27T05:30:12.598Z,978.44
2017-12-27T05:32:05.537Z,978.42
2017-12-27T05:33:05.530Z,978.41
2017-12-27T05:34:58.946Z,978.36
2017-12-27T05:35:58.958Z,978.34
2017-12-27T05:37:51.901Z,978.37
2017-12-27T05:38:51.890Z,978.33
2017-12-27T05:40:44.804Z,978.28
2017-12-27T05:41:44.821Z,978.33
2017-12-27T05:43:37.761Z,978.28
2017-12-27T05:44:37.752Z,978.26
2017-12-27T05:46:30.675Z,978.24
2017-12-27T05:47:30.681Z,978.21
2017-12-27T05:49:23.619Z,978.24
2017-12-27T05:50:23.617Z,978.21
2017-12-27T05:52:16.527Z,978.18
2017-12-27T05:53:16.549Z,978.16
2017-12-27T05:55:09.478Z,978.12
2017-12-27T05:56:09.472Z,978.09
2017-12-27T05:58:02.391Z,978.12
2017-12-27T05:59:02.407Z,978.14
2017-12-27T06:00:55.341Z,978.11
2017-12-27T06:01:55.333Z,978.13
2017-12-27T06:03:48.251Z,978.13
2017-12-27T06:04:48.264Z,978.14
2017-12-27T06:06:41.201Z,978.20
2017-12-27T06:07:41.197Z,978.15
2017-12-27T06:09:34.113Z,978.15
2017-12-27T06:10:34.126Z,978.15
2017-12-27T06:12:27.064Z,978.12
2017-12-27T06:13:27.056Z,978.08
2017-12-27T06:15:19.972Z,978.10
2017-12-27T06:16:19.984Z,978.05
2017-12-27T06:18:12.923Z,978.05
2017-12-27T06:19:12.915Z,977.96
2017-12-27T06:21:05.830Z,978.02
2017-12-27T06:22:05.848Z,977.99
2017-12-27T06:23:58.783Z,977.99
2017-12-27T06:24:58.778Z,977.98
2017-12-27T06:26:51.714Z,977.99
2017-12-27T06:27:51.708Z,978.01
2017-12-27T06:29:44.624Z,977.94
2017-12-27T06:30:44.642Z,977.95
2017-12-27T06:32:37.578Z,977.89
2017-12-27T06:33:37.570Z,977.89
2017-12-27T06:35:30.491Z,977.95
2017-12-27T06:36:30.504Z,977.93
2017-12-27T06:38:23.442Z,977.90
2017-12-27T06:39:23.432Z,977.92
2017-12-27T06:41:16.352Z,977.93
2017-12-27T06:42:16.363Z,977.92
2017-12-27T06:44:09.301Z,977.91
2017-12-27T06:45:09.293Z,977.92
2017-12-27T06:47:02.210Z,977.89
2017-12-27T06:48:02.222Z,977.84
2017-12-27T06:49:55.175Z,977.81
2017-12-27T06:50:55.153Z,977.83
2017-12-27T06:52:48.069Z,977.75
2017-12-27T06:53:48.083Z,977.78
2017-12-27T06:55:41.022Z,977.76
2017-12-27T06:56:41.013Z,977.78
2017-12-27T06:58:33.963Z,977.75
2017-12-27T06:59:33.942Z,977.76
2017-12-27T07:01:26.856Z,977.69
2017-12-27T07:02:26.880Z,977.72
2017-12-27T07:04:19.819Z,977.69
2017-12-27T07:05:19.804Z,977.64
2017-12-27T07:07:12.727Z,977.62
2017-12-27T07:08:12.736Z,977.56
2017-12-27T07:10:05.672Z,977.63
2017-12-27T07:11:05.666Z,977.58
2017-12-27T07:12:58.587Z,977.55
2017-12-27T07:13:58.599Z,977.56
2017-12-27T07:15:51.535Z,977.54
2017-12-27T07:16:51.532Z,977.59
2017-12-27T07:18:44.448Z,977.51
2017-12-27T07:19:44.456Z,977.61
2017-12-27T07:21:37.393Z,977.59
2017-12-27T07:22:37.386Z,977.60
2017-12-27T07:24:30.301Z,977.56
2017-12-27T07:25:30.318Z,977.53
2017-12-27T07:27:23.254Z,977.54
2017-12-27T07:28:23.246Z,977.51
2017-12-27T07:30:16.170Z,977.55
2017-12-27T07:31:16.173Z,977.48
2017-12-27T07:33:09.111Z,977.51
2017-12-27T07:34:09.102Z,977.48
2017-12-27T07:36:02.024Z,977.57
2017-12-27T07:37:02.035Z,977.54
2017-12-27T07:38:54.971Z,977.54
2017-12-27T07:39:54.963Z,977.53
2017-12-27T07:41:47.908Z,977.53
2017-12-27T07:42:47.893Z,977.52
2017-12-27T07:44:40.810Z,977.49
2017-12-27T07:45:40.825Z,977.52
2017-12-27T07:47:33.762Z,977.50
2017-12-27T07:48:33.755Z,977.49
2017-12-27T07:50:26.673Z,977.48
2017-12-27T07:51:26.681Z,977.49
2017-12-27T07:53:19.623Z,977.50
2017-12-27T07:54:19.615Z,977.49
2017-12-27T07:56:12.529Z,977.49
2017-12-27T07:57:12.545Z,977.47
2017-12-27T07:59:05.485Z,977.48
2017-12-27T08:00:05.475Z,977.42
2017-12-27T08:01:58.394Z,977.46
2017-12-27T08:02:58.400Z,977.44
2017-12-27T08:04:51.346Z,977.40
2017-12-27T08:05:51.335Z,977.44
2017-12-27T08:07:44.262Z,977.43
2017-12-27T08:08:44.265Z,977.39
2017-12-27T08:10:37.202Z,977.38
2017-12-27T08:11:37.194Z,977.34
2017-12-27T08:13:30.117Z,977.33
2017-12-27T08:14:30.125Z,977.30
2017-12-27T08:16:23.065Z,977.33
2017-12-27T08:17:23.059Z,977.36
2017-12-27T08:19:16.008Z,977.30
2017-12-27T08:20:15.986Z,977.30
2017-12-27T08:22:08.904Z,977.35
2017-12-27T08:23:08.914Z,977.31
2017-12-27T08:25:01.886Z,977.33
2017-12-27T08:26:01.862Z,977.37
2017-12-27T08:27:54.782Z,977.38
2017-12-27T08:28:54.792Z,977.38
2017-12-27T08:30:47.734Z,977.34
2017-12-27T08:31:47.729Z,977.35
2017-12-27T08:33:40.645Z,977.35
2017-12-27T08:34:40.656Z,977.35
2017-12-27T08:36:33.595Z,977.35
2017-12-27T08:37:33.584Z,977.29
2017-12-27T08:39:26.506Z,977.30
2017-12-27T08:40:26.515Z,977.36
2017-12-27T08:42:19.455Z,977.34
2017-12-27T08:43:19.446Z,977.38
2017-12-27T08:45:12.367Z,977.34
2017-12-27T08:46:12.376Z,977.32
2017-12-27T08:48:05.311Z,977.33
2017-12-27T08:49:05.305Z,977.38
2017-12-27T08:50:58.257Z,977.40
2017-12-27T08:51:58.232Z,977.39
2017-12-27T08:53:51.157Z,977.38
2017-12-27T08:54:51.161Z,977.39
2017-12-27T08:56:44.102Z,977.36
2017-12-27T08:57:44.090Z,977.37
2017-12-27T08:59:37.018Z,977.40
2017-12-27T09:00:37.026Z,977.38
2017-12-27T09:02:29.966Z,977.41
2017-12-27T09:03:29.959Z,977.38
2017-12-27T09:05:22.881Z,977.39
2017-12-27T09:06:22.892Z,977.39
2017-12-27T09:08:15.826Z,977.37
2017-12-27T09:09:15.816Z,977.40
2017-12-27T09:11:08.737Z,977.35
2017-12-27T09:12:08.746Z,977.32
2017-12-27T09:14:01.685Z,977.34
2017-12-27T09:15:01.675Z,977.36
2017-12-27T09:16:54.589Z,977.37
2017-12-27T09:17:54.604Z,977.33
2017-12-27T09:19:47.543Z,977.32
2017-12-27T09:20:47.536Z,977.39
2017-12-27T09:22:40.954Z,977.41
2017-12-27T09:23:40.965Z,977.44
2017-12-27T09:25:33.899Z,977.45
2017-12-27T09:26:33.892Z,977.47
2017-12-27T09:28:26.807Z,977.52
2017-12-27T09:29:26.822Z,977.52
2017-12-27T09:31:19.760Z,977.49
2017-12-27T09:32:19.751Z,977.52
2017-12-27T09:34:12.671Z,977.54
2017-12-27T09:35:12.680Z,977.54
2017-12-27T09:37:05.618Z,977.54
2017-12-27T09:38:05.611Z,977.59
2017-12-27T09:39:58.531Z,977.58
2017-12-27T09:40:58.537Z,977.63
2017-12-27T09:42:51.482Z,977.64
2017-12-27T09:43:51.475Z,977.66
2017-12-27T09:45:44.388Z,977.68
2017-12-27T09:46:44.405Z,977.70
2017-12-27T09:48:37.339Z,977.67
2017-12-27T09:49:37.332Z,977.72
2017-12-27T09:51:30.257Z,977.72
2017-12-27T09:52:30.265Z,977.64
2017-12-27T09:54:23.205Z,977.65
2017-12-27T09:55:23.198Z,977.65
2017-12-27T09:57:16.116Z,977.64
2017-12-27T09:58:16.128Z,977.64
2017-12-27T10:00:09.065Z,977.63
2017-12-27T10:01:09.059Z,977.59
2017-12-27T10:03:01.978Z,977.58
2017-12-27T10:04:01.986Z,977.58
2017-12-27T10:05:54.929Z,977.55
2017-12-27T10:06:54.922Z,977.58
2017-12-27T10:08:47.869Z,977.60
2017-12-27T10:09:47.851Z,977.57
2017-12-27T10:11:40.771Z,977.58
2017-12-27T10:12:40.780Z,977.57
2017-12-27T10:14:33.716Z,977.53
2017-12-27T10:15:33.709Z,977.56
2017-12-27T10:17:26.632Z,977.45
2017-12-27T10:18:26.640Z,977.50
2017-12-27T10:20:19.586Z,977.54
2017-12-27T10:21:19.573Z,977.58
2017-12-27T10:23:12.489Z,977.61
2017-12-27T10:24:12.501Z,977.54
2017-12-27T10:26:05.438Z,977.57
2017-12-27T10:27:05.433Z,977.52
2017-12-27T10:28:58.347Z,977.50
2017-12-27T10:29:58.363Z,977.53
2017-12-27T10:31:51.300Z,977.48
2017-12-27T10:32:51.302Z,977.48
2017-12-27T10:34:44.213Z,977.49
2017-12-27T10:35:44.226Z,977.48
2017-12-27T10:37:37.164Z,977.48
2017-12-27T10:38:37.154Z,977.48
2017-12-27T10:40:30.071Z,977.40
2017-12-27T10:41:30.087Z,977.40
2017-12-27T10:43:23.032Z,977.45
2017-12-27T10:44:23.022Z,977.36
2017-12-27T10:46:15.944Z,977.40
2017-12-27T10:47:15.954Z,977.35
2017-12-27T10:49:08.892Z,977.27
2017-12-27T10:50:08.885Z,977.27
2017-12-27T10:52:01.806Z,977.21
2017-12-27T10:53:01.818Z,977.26
2017-12-27T10:54:54.756Z,977.23
2017-12-27T10:55:54.747Z,977.28
2017-12-27T10:57:47.669Z,977.26
2017-12-27T10:58:47.681Z,977.29
2017-12-27T11:00:40.618Z,977.26
2017-12-27T11:01:40.612Z,977.29
2017-12-27T11:03:33.532Z,977.26
2017-12-27T11:04:33.545Z,977.24
2017-12-27T11:06:26.484Z,977.24
2017-12-27T11:07:26.479Z,977.23
2017-12-27T11:09:19.401Z,977.18
2017-12-27T11:10:19.413Z,977.19
2017-12-27T11:12:12.354Z,977.24
2017-12-27T11:13:12.354Z,977.21
2017-12-27T11:15:05.272Z,977.22
2017-12-27T11:16:05.281Z,977.23
2017-12-27T11:17:58.218Z,977.14
2017-12-27T11:18:58.213Z,977.12
2017-12-27T11:20:51.174Z,977.11
2017-12-27T11:21:51.154Z,977.12
2017-12-27T11:23:44.076Z,977.14
2017-12-27T11:24:44.091Z,977.16
2017-12-27T11:26:37.027Z,977.20
2017-12-27T11:27:37.023Z,977.20
2017-12-27T11:29:29.946Z,977.17
2017-12-27T11:30:29.958Z,977.23
2017-12-27T11:32:22.904Z,977.19
2017-12-27T11:33:22.890Z,977.18
2017-12-27T11:35:15.809Z,977.22
2017-12-27T11:36:15.826Z,977.21
2017-12-27T11:38:08.761Z,977.19
2017-12-27T11:39:08.762Z,977.24
2017-12-27T11:41:01.683Z,977.21
2017-12-27T11:42:01.701Z,977.20
2017-12-27T11:43:54.635Z,977.14
2017-12-27T11:44:54.630Z,977.19
2017-12-27T11:46:47.552Z,977.25
2017-12-27T11:47:47.574Z,977.18
2017-12-27T11:49:40.509Z,977.18
2017-12-27T11:50:40.502Z,977.27
2017-12-27T11:52:33.425Z,977.21
2017-12-27T11:53:33.443Z,977.17
2017-12-27T11:55:26.384Z,977.13
2017-12-27T11:56:26.375Z,977.07
2017-12-27T11:58:19.322Z,977.10
2017-12-27T11:59:19.310Z,977.09
2017-12-27T12:01:12.233Z,977.06
2017-12-27T12:02:12.246Z,977.06
2017-12-27T12:04:05.195Z,977.01
2017-12-27T12:05:05.183Z,976.99
2017-12-27T12:06:58.108Z,976.94
2017-12-27T12:07:58.127Z,976.93
2017-12-27T12:09:51.064Z,976.93
2017-12-27T12:10:51.056Z,976.91
2017-12-27T12:12:43.971Z,976.89
2017-12-27T12:13:43.986Z,976.92
2017-12-27T12:15:36.927Z,976.94
2017-12-27T12:16:36.921Z,976.93
2017-12-27T12:18:29.840Z,976.95
2017-12-27T12:19:29.858Z,976.90
2017-12-27T12:21:22.796Z,976.82
2017-12-27T12:22:22.792Z,976.87
2017-12-27T12:24:15.714Z,976.84
2017-12-27T12:25:15.728Z,976.80
2017-12-27T12:27:08.670Z,976.81
2017-12-27T12:28:08.663Z,976.82
2017-12-27T12:30:01.583Z,976.81
2017-12-27T12:31:01.597Z,976.78
2017-12-27T12:32:54.538Z,976.80
2017-12-27T12:33:54.534Z,976.85
2017-12-27T12:35:47.455Z,976.81
2017-12-27T12:36:47.463Z,976.80
2017-12-27T12:38:40.409Z,976.86
2017-12-27T12:39:40.404Z,976.84
2017-12-27T12:41:33.325Z,976.83
2017-12-27T12:42:33.336Z,976.82
2017-12-27T12:44:26.279Z,976.76
2017-12-27T12:45:26.272Z,976.79
2017-12-27T12:47:19.218Z,976.79
2017-12-27T12:48:19.210Z,976.79
2017-12-27T12:50:12.130Z,976.78
2017-12-27T12:51:12.146Z,976.80
2017-12-27T12:53:05.086Z,976.80
2017-12-27T12:54:05.081Z,976.79
2017-12-27T12:55:58.003Z,976.76
2017-12-27T12:56:58.019Z,976.72
2017-12-27T12:58:50.974Z,976.70
2017-12-27T12:59:50.958Z,976.68
2017-12-27T13:01:43.878Z,976.69
2017-12-27T13:02:43.890Z,976.63
2017-12-27T13:04:36.834Z,976.54
2017-12-27T13:05:36.828Z,976.56
2017-12-27T13:07:29.757Z,976.49
2017-12-27T13:08:29.769Z,976.49
2017-12-27T13:10:22.708Z,976.53
2017-12-27T13:11:22.701Z,976.52
2017-12-27T13:13:15.631Z,976.50
2017-12-27T13:14:15.639Z,976.50
2017-12-27T13:16:08.585Z,976.49
2017-12-27T13:17:08.576Z,976.48
2017-12-27T13:19:01.505Z,976.52
2017-12-27T13:20:01.518Z,976.52
2017-12-27T13:21:54.456Z,976.55
2017-12-27T13:22:54.446Z,976.52
2017-12-27T13:24:47.866Z,976.51
2017-12-27T13:25:47.880Z,976.47
2017-12-27T13:27:40.820Z,976.46
2017-12-27T13:28:40.814Z,976.49
2017-12-27T13:30:33.739Z,976.57
2017-12-27T13:31:33.751Z,976.59
2017-12-27T13:33:26.699Z,976.61
2017-12-27T13:34:26.684Z,976.61
2017-12-27T13:36:19.634Z,976.59
2017-12-27T13:37:19.622Z,976.62
2017-12-27T13:39:12.548Z,976.59
2017-12-27T13:40:12.557Z,976.57
2017-12-27T13:42:05.531Z,976.57
2017-12-27T13:43:05.514Z,976.58
2017-12-27T13:44:58.438Z,976.58
2017-12-27T13:45:58.452Z,976.63
2017-12-27T13:47:51.396Z,976.63
2017-12-27T13:48:51.391Z,976.63
2017-12-27T13:50:44.320Z,976.61
2017-12-27T13:51:44.335Z,976.59
2017-12-27T13:53:37.270Z,976.61
2017-12-27T13:54:37.267Z,976.59
2017-12-27T13:56:30.185Z,976.51
2017-12-27T13:57:30.202Z,976.57
2017-12-27T13:59:23.147Z,976.60
2017-12-27T14:00:23.141Z,976.62
2017-12-27T14:02:16.062Z,976.70
2017-12-27T14:03:16.075Z,976.69
2017-12-27T14:05:09.017Z,976.69
2017-12-27T14:06:09.010Z,976.70
2017-12-27T14:08:02.431Z,976.66
2017-12-27T14:09:02.441Z,976.66
2017-12-27T14:10:55.383Z,976.67
2017-12-27T14:11:55.372Z,976.65
2017-12-27T14:13:48.298Z,976.64
2017-12-27T14:14:48.316Z,976.67
2017-12-27T14:16:41.255Z,976.69
2017-12-27T14:17:41.250Z,976.69
2017-12-27T14:19:34.168Z,976.69
2017-12-27T14:20:34.181Z,976.71
2017-12-27T14:22:27.132Z,976.75
2017-12-27T14:23:27.125Z,976.77
2017-12-27T14:25:20.072Z,976.89
2017-12-27T14:26:20.055Z,976.83
2017-12-27T14:28:12.985Z,976.91
2017-12-27T14:29:12.995Z,976.91
2017-12-27T14:31:05.940Z,976.96
2017-12-27T14:32:05.933Z,976.90
2017-12-27T14:33:58.856Z,976.91
2017-12-27T14:34:58.870Z,976.95
2017-12-27T14:36:51.811Z,976.96
2017-12-27T14:37:51.804Z,976.99
2017-12-27T14:39:44.728Z,977.01
2017-12-27T14:40:44.737Z,977.03
2017-12-27T14:42:37.680Z,976.99
2017-12-27T14:43:37.672Z,977.06
2017-12-27T14:45:30.594Z,977.07
2017-12-27T14:46:30.607Z,977.09
2017-12-27T14:48:23.550Z,977.09
2017-12-27T14:49:23.544Z,977.13
2017-12-27T14:51:16.465Z,977.15
2017-12-27T14:52:16.477Z,977.17
2017-12-27T14:54:09.415Z,977.17
2017-12-27T14:55:09.412Z,977.17
2017-12-27T14:57:02.344Z,977.16
2017-12-27T14:58:02.346Z,977.14
2017-12-27T14:59:55.291Z,977.14
2017-12-27T15:00:55.285Z,977.11
2017-12-27T15:02:48.211Z,977.12
2017-12-27T15:03:48.216Z,977.11
2017-12-27T15:05:41.162Z,977.13
2017-12-27T15:06:41.154Z,977.14
2017-12-27T15:08:34.081Z,977.14
2017-12-27T15:09:34.093Z,977.07
2017-12-27T15:11:27.030Z,977.15
2017-12-27T15:12:27.026Z,977.12
2017-12-27T15:14:19.976Z,977.17
2017-12-27T15:15:19.960Z,977.22
2017-12-27T15:17:12.882Z,977.18
2017-12-27T15:18:12.894Z,977.15
2017-12-27T15:20:05.835Z,977.15
2017-12-27T15:21:05.834Z,977.13
2017-12-27T15:22:58.754Z,977.14
2017-12-27T15:23:58.769Z,977.15
2017-12-27T15:25:51.709Z,977.20
2017-12-27T15:26:51.703Z,977.15
2017-12-27T15:28:44.621Z,977.19
2017-12-27T15:29:44.639Z,977.14
2017-12-27T15:31:37.587Z,977.11
2017-12-27T15:32:37.580Z,977.14
2017-12-27T15:34:30.503Z,977.19
2017-12-27T15:35:30.516Z,977.19
2017-12-27T15:37:23.457Z,977.22
2017-12-27T15:38:23.450Z,977.20
2017-12-27T15:40:16.370Z,977.23
2017-12-27T15:41:16.385Z,977.24
2017-12-27T15:43:09.328Z,977.21
2017-12-27T15:44:09.318Z,977.27
2017-12-27T15:46:02.274Z,977.28
2017-12-27T15:47:02.253Z,977.27
2017-12-27T15:48:55.172Z,977.27
2017-12-27T15:49:55.188Z,977.25
2017-12-27T15:51:48.127Z,977.28
2017-12-27T15:52:48.120Z,977.30
2017-12-27T15:54:41.043Z,977.25
2017-12-27T15:55:41.055Z,977.29
2017-12-27T15:57:34.002Z,977.28
2017-12-27T15:58:33.992Z,977.22
2017-12-27T16:00:26.913Z,977.28
2017-12-27T16:01:26.925Z,977.31
2017-12-27T16:03:19.857Z,977.34
2017-12-27T16:04:19.857Z,977.30
2017-12-27T16:06:12.780Z,977.28
2017-12-27T16:07:12.791Z,977.26
2017-12-27T16:09:05.730Z,977.25
2017-12-27T16:10:05.723Z,977.31
2017-12-27T16:11:58.649Z,977.31
2017-12-27T16:12:58.654Z,977.39
2017-12-27T16:14:51.597Z,977.42
2017-12-27T16:15:51.591Z,977.41
2017-12-27T16:17:44.526Z,977.43
2017-12-27T16:18:44.522Z,977.41
2017-12-27T16:20:37.441Z,977.46
2017-12-27T16:21:37.452Z,977.47
2017-12-27T16:23:30.393Z,977.45
2017-12-27T16:24:30.384Z,977.41
2017-12-27T16:26:23.301Z,977.42
2017-12-27T16:27:23.314Z,977.41
2017-12-27T16:29:16.258Z,977.40
2017-12-27T16:30:16.247Z,977.38
2017-12-27T16:32:09.169Z,977.40
2017-12-27T16:33:09.180Z,977.45
2017-12-27T16:35:02.120Z,977.42
2017-12-27T16:36:02.112Z,977.43
2017-12-27T16:37:55.052Z,977.45
2017-12-27T16:38:55.043Z,977.44
2017-12-27T16:40:47.983Z,977.46
2017-12-27T16:41:47.973Z,977.45
2017-12-27T16:43:40.893Z,977.50
2017-12-27T16:44:40.907Z,977.51
2017-12-27T16:46:33.852Z,977.56
2017-12-27T16:47:33.837Z,977.56
2017-12-27T16:49:26.760Z,977.60
2017-12-27T16:50:26.777Z,977.62
2017-12-27T16:52:19.710Z,977.69
2017-12-27T16:53:19.706Z,977.67
2017-12-27T16:55:12.642Z,977.65
2017-12-27T16:56:12.633Z,977.66
2017-12-27T16:58:05.557Z,977.65
2017-12-27T16:59:05.568Z,977.69
2017-12-27T17:00:58.513Z,977.73
2017-12-27T17:01:58.504Z,977.69
2017-12-27T17:03:51.427Z,977.72
2017-12-27T17:04:51.439Z,977.70
2017-12-27T17:06:44.377Z,977.66
2017-12-27T17:07:44.368Z,977.77
2017-12-27T17:09:37.287Z,977.79
2017-12-27T17:10:37.301Z,977.81
2017-12-27T17:12:30.237Z,977.77
2017-12-27T17:13:30.232Z,977.79
2017-12-27T17:15:23.154Z,977.82
2017-12-27T17:16:23.162Z,977.81
2017-12-27T17:18:16.104Z,977.87
2017-12-27T17:19:16.097Z,977.83
2017-12-27T17:21:09.009Z,977.83
2017-12-27T17:22:09.021Z,977.88
2017-12-27T17:24:01.962Z,977.88
2017-12-27T17:25:01.951Z,977.88
2017-12-27T17:26:54.872Z,977.92
2017-12-27T17:27:54.881Z,977.91
2017-12-27T17:29:47.830Z,977.91
2017-12-27T17:30:47.810Z,977.83
2017-12-27T17:32:40.772Z,977.90
2017-12-27T17:33:40.746Z,977.93
2017-12-27T17:35:33.661Z,977.95
2017-12-27T17:36:33.671Z,977.96
2017-12-27T17:38:26.620Z,977.94
2017-12-27T17:39:26.610Z,977.97
2017-12-27T17:41:19.533Z,978.02
2017-12-27T17:42:19.551Z,978.04
2017-12-27T17:44:12.487Z,978.04
2017-12-27T17:45:12.474Z,978.01
2017-12-27T17:47:05.398Z,978.11
2017-12-27T17:48:05.405Z,978.13
2017-12-27T17:49:58.355Z,978.16
2017-12-27T17:50:58.338Z,978.14
2017-12-27T17:52:51.759Z,978.21
2017-12-27T17:53:51.778Z,978.21
2017-12-27T17:55:44.709Z,978.19
2017-12-27T17:56:44.703Z,978.22
2017-12-27T17:58:37.626Z,978.26